createdAt,value
2019-02-25T00:00:54.278Z,0.00
2019-02-25T00:01:54.222Z,0.00
2019-02-25T00:02:54.151Z,0.00
2019-02-25T00:03:54.068Z,0.00
2019-02-25T00:04:53.996Z,0.00
2019-02-25T00:05:53.921Z,0.00
2019-02-25T00:06:53.887Z,0.00
2019-02-25T00:07:53.787Z,0.00
2019-02-25T00:08:53.722Z,0.00
2019-02-25T00:09:53.646Z,0.00
2019-02-25T00:10:53.573Z,0.00
2019-02-25T00:11:53.487Z,0.00
2019-02-25T00:12:53.415Z,0.00
2019-02-25T00:13:53.378Z,0.00
2019-02-25T00:14:53.278Z,0.00
2019-02-25T00:15:53.214Z,0.00
2019-02-25T00:16:53.143Z,0.00
2019-02-25T00:17:53.066Z,0.00
2019-02-25T00:18:52.984Z,0.00
2019-02-25T00:19:52.926Z,0.00
2019-02-25T00:20:52.852Z,0.00
2019-02-25T00:21:52.780Z,0.00
2019-02-25T00:22:52.715Z,0.00
2019-02-25T00:23:52.629Z,0.00
2019-02-25T00:24:52.562Z,0.00
2019-02-25T00:25:52.481Z,0.00
2019-02-25T00:26:52.414Z,0.00
2019-02-25T00:27:52.346Z,0.00
2019-02-25T00:28:52.284Z,0.00
2019-02-25T00:29:52.207Z,0.00
2019-02-25T00:30:52.133Z,0.00
2019-02-25T00:31:52.053Z,0.00
2019-02-25T00:32:51.979Z,0.00
2019-02-25T00:33:51.912Z,0.00
2019-02-25T00:34:51.844Z,0.00
2019-02-25T00:35:51.768Z,0.00
2019-02-25T00:36:51.690Z,0.00
2019-02-25T00:37:51.614Z,0.00
2019-02-25T00:38:51.555Z,0.00
2019-02-25T00:39:51.485Z,0.00
2019-02-25T00:40:51.412Z,0.00
2019-02-25T00:41:51.353Z,0.00
2019-02-25T00:42:51.265Z,0.00
2019-02-25T00:43:51.180Z,0.00
2019-02-25T00:44:51.109Z,0.00
2019-02-25T00:45:51.044Z,0.00
2019-02-25T00:46:50.961Z,0.00
2019-02-25T00:47:50.914Z,0.00
2019-02-25T00:48:50.830Z,0.00
2019-02-25T00:49:50.747Z,0.00
2019-02-25T00:50:50.680Z,0.00
2019-02-25T00:51:50.613Z,0.00
2019-02-25T00:52:50.536Z,0.00
2019-02-25T00:53:50.475Z,0.00
2019-02-25T00:54:50.398Z,0.00
2019-02-25T00:55:50.307Z,0.00
2019-02-25T00:56:50.239Z,0.00
2019-02-25T00:57:50.190Z,0.00
2019-02-25T00:58:50.104Z,0.00
2019-02-25T00:59:50.021Z,0.00
2019-02-25T01:00:49.947Z,0.00
2019-02-25T01:01:49.877Z,0.00
2019-02-25T01:02:49.802Z,0.00
2019-02-25T01:03:49.744Z,0.00
2019-02-25T01:04:49.669Z,0.00
2019-02-25T01:05:49.587Z,0.00
2019-02-25T01:06:49.513Z,0.00
2019-02-25T01:07:49.452Z,0.00
2019-02-25T01:08:49.381Z,0.00
2019-02-25T01:09:49.308Z,0.00
2019-02-25T01:10:49.236Z,0.00
2019-02-25T01:11:49.155Z,0.00
2019-02-25T01:12:49.081Z,0.00
2019-02-25T01:13:49.005Z,0.00
2019-02-25T01:14:48.933Z,0.00
2019-02-25T01:15:48.869Z,0.00
2019-02-25T01:16:48.796Z,0.00
2019-02-25T01:17:48.727Z,0.00
2019-02-25T01:18:48.650Z,0.00
2019-02-25T01:19:48.569Z,0.00
2019-02-25T01:20:48.494Z,0.00
2019-02-25T01:21:48.437Z,0.00
2019-02-25T01:22:48.361Z,0.00
2019-02-25T01:23:48.963Z,0.00
2019-02-25T01:24:48.212Z,0.00
2019-02-25T01:25:48.127Z,0.00
2019-02-25T01:26:48.055Z,0.00
2019-02-25T01:27:47.996Z,0.00
2019-02-25T01:28:47.925Z,0.00
2019-02-25T01:29:47.850Z,0.00
2019-02-25T01:30:47.774Z,0.00
2019-02-25T01:31:47.690Z,0.00
2019-02-25T01:32:47.617Z,0.00
2019-02-25T01:33:47.547Z,0.00
2019-02-25T01:34:47.480Z,0.00
2019-02-25T01:35:47.419Z,0.00
2019-02-25T01:36:47.342Z,0.00
2019-02-25T01:37:47.255Z,0.00
2019-02-25T01:38:47.192Z,0.00
2019-02-25T01:39:47.121Z,0.00
2019-02-25T01:40:47.045Z,0.00
2019-02-25T01:41:46.974Z,0.00
2019-02-25T01:42:46.903Z,0.00
2019-02-25T01:43:46.824Z,0.00
2019-02-25T01:44:46.743Z,0.00
2019-02-25T01:45:46.670Z,0.00
2019-02-25T01:46:46.602Z,0.00
2019-02-25T01:47:46.536Z,0.00
2019-02-25T01:48:46.460Z,0.00
2019-02-25T01:49:46.388Z,0.00
2019-02-25T01:50:46.314Z,0.00
2019-02-25T01:51:46.233Z,0.00
2019-02-25T01:52:46.162Z,0.00
2019-02-25T01:53:46.097Z,0.00
2019-02-25T01:54:46.035Z,0.00
2019-02-25T01:55:45.940Z,0.00
2019-02-25T01:56:45.867Z,0.00
2019-02-25T01:57:45.794Z,0.00
2019-02-25T01:58:45.722Z,0.00
2019-02-25T01:59:45.666Z,0.00
2019-02-25T02:00:45.588Z,0.00
2019-02-25T02:01:45.503Z,0.00
2019-02-25T02:02:45.433Z,0.00
2019-02-25T02:03:45.367Z,0.00
2019-02-25T02:04:45.295Z,0.00
2019-02-25T02:05:45.223Z,0.00
2019-02-25T02:06:45.150Z,0.00
2019-02-25T02:07:45.068Z,0.00
2019-02-25T02:08:44.993Z,0.00
2019-02-25T02:09:44.934Z,0.00
2019-02-25T02:10:44.861Z,0.00
2019-02-25T02:11:44.775Z,0.00
2019-02-25T02:12:44.701Z,0.00
2019-02-25T02:13:44.627Z,0.00
2019-02-25T02:14:44.557Z,0.00
2019-02-25T02:15:44.495Z,0.00
2019-02-25T02:16:44.421Z,0.00
2019-02-25T02:17:44.352Z,0.00
2019-02-25T02:18:44.272Z,0.00
2019-02-25T02:19:44.191Z,0.00
2019-02-25T02:20:44.115Z,0.00
2019-02-25T02:21:44.045Z,0.00
2019-02-25T02:22:43.970Z,0.00
2019-02-25T02:23:43.915Z,0.00
2019-02-25T02:24:43.835Z,0.00
2019-02-25T02:25:43.751Z,0.00
2019-02-25T02:26:43.679Z,0.00
2019-02-25T02:27:43.619Z,0.00
2019-02-25T02:28:43.543Z,0.00
2019-02-25T02:29:43.485Z,0.00
2019-02-25T02:30:43.400Z,0.00
2019-02-25T02:31:43.314Z,0.00
2019-02-25T02:32:43.238Z,0.00
2019-02-25T02:33:43.169Z,0.00
2019-02-25T02:34:43.094Z,0.00
2019-02-25T02:35:43.034Z,0.00
2019-02-25T02:36:42.959Z,0.00
2019-02-25T02:37:42.894Z,0.00
2019-02-25T02:38:42.814Z,0.00
2019-02-25T02:39:42.729Z,0.00
2019-02-25T02:40:42.653Z,0.00
2019-02-25T02:41:42.591Z,0.00
2019-02-25T02:42:42.521Z,0.00
2019-02-25T02:43:42.455Z,0.00
2019-02-25T02:44:42.362Z,0.00
2019-02-25T02:45:42.287Z,0.00
2019-02-25T02:46:42.215Z,0.00
2019-02-25T02:47:42.149Z,0.00
2019-02-25T02:48:42.078Z,0.00
2019-02-25T02:49:42.011Z,0.00
2019-02-25T02:50:41.939Z,0.00
2019-02-25T02:51:41.847Z,0.00
2019-02-25T02:52:41.775Z,0.00
2019-02-25T02:53:41.703Z,0.00
2019-02-25T02:54:41.630Z,0.00
2019-02-25T02:55:41.573Z,0.00
2019-02-25T02:56:41.519Z,0.00
2019-02-25T02:57:41.409Z,0.00
2019-02-25T02:58:41.342Z,0.00
2019-02-25T02:59:41.281Z,0.00
2019-02-25T03:00:41.200Z,0.00
2019-02-25T03:01:41.124Z,0.00
2019-02-25T03:02:41.074Z,0.00
2019-02-25T03:03:40.970Z,0.00
2019-02-25T03:04:40.899Z,0.00
2019-02-25T03:05:40.832Z,0.00
2019-02-25T03:06:40.765Z,0.00
2019-02-25T03:07:40.679Z,0.00
2019-02-25T03:08:40.603Z,0.00
2019-02-25T03:09:40.528Z,0.00
2019-02-25T03:10:40.457Z,0.00
2019-02-25T03:11:40.396Z,0.00
2019-02-25T03:12:40.323Z,0.00
2019-02-25T03:13:40.239Z,0.00
2019-02-25T03:14:40.166Z,0.00
2019-02-25T03:15:40.100Z,0.00
2019-02-25T03:16:40.030Z,0.00
2019-02-25T03:17:39.957Z,0.00
2019-02-25T03:18:39.880Z,0.00
2019-02-25T03:19:39.829Z,0.00
2019-02-25T03:20:39.724Z,0.00
2019-02-25T03:21:39.651Z,0.00
2019-02-25T03:22:39.579Z,0.00
2019-02-25T03:23:39.514Z,0.00
2019-02-25T03:24:39.461Z,0.00
2019-02-25T03:25:39.367Z,0.00
2019-02-25T03:26:39.294Z,0.00
2019-02-25T03:27:39.207Z,0.00
2019-02-25T03:28:39.133Z,0.00
2019-02-25T03:29:39.076Z,0.00
2019-02-25T03:30:39.004Z,0.00
2019-02-25T03:31:38.915Z,0.00
2019-02-25T03:32:38.854Z,0.00
2019-02-25T03:33:38.809Z,0.00
2019-02-25T03:34:38.697Z,0.00
2019-02-25T03:35:38.634Z,0.00
2019-02-25T03:36:38.560Z,0.00
2019-02-25T03:37:38.472Z,0.00
2019-02-25T03:38:38.399Z,0.00
2019-02-25T03:39:38.343Z,0.00
2019-02-25T03:40:38.281Z,0.00
2019-02-25T03:41:38.189Z,0.00
2019-02-25T03:42:38.119Z,0.00
2019-02-25T03:43:38.031Z,0.00
2019-02-25T03:44:37.974Z,0.00
2019-02-25T03:45:37.895Z,0.00
2019-02-25T03:46:37.838Z,0.00
2019-02-25T03:47:37.733Z,0.00
2019-02-25T03:48:37.665Z,0.00
2019-02-25T03:49:37.592Z,0.00
2019-02-25T03:50:37.515Z,0.00
2019-02-25T03:51:37.455Z,0.00
2019-02-25T03:52:37.375Z,0.00
2019-02-25T03:53:37.313Z,0.00
2019-02-25T03:54:37.250Z,0.00
2019-02-25T03:55:37.147Z,0.00
2019-02-25T03:56:37.070Z,0.00
2019-02-25T03:57:37.003Z,0.00
2019-02-25T03:58:36.923Z,0.00
2019-02-25T03:59:36.866Z,0.00
2019-02-25T04:00:36.785Z,0.00
2019-02-25T04:01:36.702Z,0.00
2019-02-25T04:02:36.634Z,0.00
2019-02-25T04:03:36.585Z,0.00
2019-02-25T04:04:36.497Z,0.00
2019-02-25T04:05:36.431Z,0.00
2019-02-25T04:06:36.350Z,0.00
2019-02-25T04:07:36.266Z,0.00
2019-02-25T04:08:36.191Z,0.00
2019-02-25T04:09:36.127Z,0.00
2019-02-25T04:10:36.050Z,0.00
2019-02-25T04:11:36.006Z,0.00
2019-02-25T04:12:35.896Z,0.00
2019-02-25T04:13:35.823Z,0.00
2019-02-25T04:14:35.784Z,0.00
2019-02-25T04:15:35.690Z,0.00
2019-02-25T04:16:35.609Z,0.00
2019-02-25T04:17:35.536Z,0.00
2019-02-25T04:18:35.461Z,0.00
2019-02-25T04:19:35.393Z,0.00
2019-02-25T04:20:35.322Z,0.00
2019-02-25T04:21:35.243Z,0.00
2019-02-25T04:22:35.177Z,0.00
2019-02-25T04:23:35.082Z,0.00
2019-02-25T04:24:35.010Z,0.00
2019-02-25T04:25:34.935Z,0.00
2019-02-25T04:26:34.865Z,0.00
2019-02-25T04:27:34.807Z,0.00
2019-02-25T04:28:34.725Z,0.00
2019-02-25T04:29:34.649Z,0.00
2019-02-25T04:30:34.579Z,0.00
2019-02-25T04:31:34.500Z,0.00
2019-02-25T04:32:34.425Z,0.00
2019-02-25T04:33:34.359Z,0.00
2019-02-25T04:34:34.286Z,0.00
2019-02-25T04:35:34.202Z,0.00
2019-02-25T04:36:34.130Z,0.00
2019-02-25T04:37:34.051Z,0.00
2019-02-25T04:38:33.976Z,0.00
2019-02-25T04:39:33.917Z,0.00
2019-02-25T04:40:33.848Z,0.00
2019-02-25T04:41:33.763Z,0.00
2019-02-25T04:42:33.693Z,0.00
2019-02-25T04:43:33.612Z,0.00
2019-02-25T04:44:33.534Z,0.00
2019-02-25T04:45:33.462Z,0.00
2019-02-25T04:46:33.385Z,0.00
2019-02-25T04:47:33.325Z,0.00
2019-02-25T04:48:33.292Z,0.00
2019-02-25T04:49:33.184Z,0.00
2019-02-25T04:50:33.091Z,0.00
2019-02-25T04:51:33.031Z,0.00
2019-02-25T04:52:32.965Z,0.00
2019-02-25T04:53:32.879Z,0.00
2019-02-25T04:54:32.809Z,0.00
2019-02-25T04:55:32.719Z,0.00
2019-02-25T04:56:32.650Z,0.00
2019-02-25T04:57:32.573Z,0.00
2019-02-25T04:58:32.496Z,0.00
2019-02-25T04:59:32.440Z,0.00
2019-02-25T05:00:32.363Z,0.00
2019-02-25T05:01:32.294Z,0.00
2019-02-25T05:02:32.215Z,0.00
2019-02-25T05:03:32.130Z,0.00
2019-02-25T05:04:32.055Z,0.00
2019-02-25T05:05:31.991Z,0.00
2019-02-25T05:06:31.919Z,0.00
2019-02-25T05:07:31.853Z,0.00
2019-02-25T05:08:31.757Z,0.00
2019-02-25T05:09:31.684Z,0.00
2019-02-25T05:10:31.607Z,0.00
2019-02-25T05:11:31.560Z,0.00
2019-02-25T05:12:31.475Z,0.00
2019-02-25T05:13:31.390Z,0.00
2019-02-25T05:14:31.374Z,0.00
2019-02-25T05:15:31.247Z,0.00
2019-02-25T05:16:31.179Z,0.00
2019-02-25T05:17:31.104Z,0.00
2019-02-25T05:18:31.036Z,0.00
2019-02-25T05:19:30.951Z,0.00
2019-02-25T05:20:30.877Z,0.00
2019-02-25T05:21:30.811Z,0.00
2019-02-25T05:22:30.740Z,0.00
2019-02-25T05:23:30.664Z,0.00
2019-02-25T05:24:30.574Z,0.00
2019-02-25T05:25:30.502Z,0.00
2019-02-25T05:26:30.425Z,0.00
2019-02-25T05:27:30.366Z,0.00
2019-02-25T05:28:30.293Z,0.00
2019-02-25T05:29:30.221Z,0.00
2019-02-25T05:30:30.144Z,0.00
2019-02-25T05:31:30.078Z,0.00
2019-02-25T05:32:30.003Z,0.00
2019-02-25T05:33:29.910Z,0.00
2019-02-25T05:34:29.834Z,0.00
2019-02-25T05:35:29.779Z,0.00
2019-02-25T05:36:29.711Z,0.00
2019-02-25T05:37:29.612Z,0.00
2019-02-25T05:38:29.539Z,0.00
2019-02-25T05:39:29.480Z,0.00
2019-02-25T05:40:29.405Z,0.00
2019-02-25T05:41:29.329Z,0.00
2019-02-25T05:42:29.255Z,0.00
2019-02-25T05:43:29.168Z,0.00
2019-02-25T05:44:29.099Z,0.00
2019-02-25T05:45:29.064Z,0.00
2019-02-25T05:46:28.947Z,0.00
2019-02-25T05:47:28.881Z,0.00
2019-02-25T05:48:28.810Z,0.00
2019-02-25T05:49:28.737Z,0.00
2019-02-25T05:50:28.665Z,0.00
2019-02-25T05:51:28.572Z,0.00
2019-02-25T05:52:28.501Z,0.00
2019-02-25T05:53:28.436Z,0.00
2019-02-25T05:54:28.388Z,0.00
2019-02-25T05:55:28.284Z,0.00
2019-02-25T05:56:28.208Z,0.00
2019-02-25T05:57:28.132Z,0.00
2019-02-25T05:58:28.061Z,0.00
2019-02-25T05:59:28.002Z,0.00
2019-02-25T06:00:27.917Z,0.00
2019-02-25T06:01:27.847Z,0.00
2019-02-25T06:02:27.781Z,0.00
2019-02-25T06:03:27.689Z,0.00
2019-02-25T06:04:27.618Z,0.00
2019-02-25T06:05:27.553Z,0.00
2019-02-25T06:06:27.466Z,0.00
2019-02-25T06:07:27.411Z,0.00
2019-02-25T06:08:27.330Z,0.00
2019-02-25T06:09:27.246Z,0.00
2019-02-25T06:10:27.190Z,0.00
2019-02-25T06:11:27.131Z,0.00
2019-02-25T06:12:27.035Z,0.00
2019-02-25T06:13:26.960Z,0.00
2019-02-25T06:14:26.891Z,0.00
2019-02-25T06:15:26.799Z,0.00
2019-02-25T06:16:26.730Z,0.00
2019-02-25T06:17:26.665Z,0.00
2019-02-25T06:18:26.593Z,0.00
2019-02-25T06:19:26.508Z,0.00
2019-02-25T06:20:26.442Z,0.00
2019-02-25T06:21:26.367Z,0.00
2019-02-25T06:22:26.284Z,0.00
2019-02-25T06:23:26.221Z,0.00
2019-02-25T06:24:26.146Z,0.00
2019-02-25T06:25:26.070Z,0.00
2019-02-25T06:26:25.988Z,0.00
2019-02-25T06:27:30.585Z,0.00
2019-02-25T06:28:25.852Z,0.00
2019-02-25T06:29:25.779Z,0.00
2019-02-25T06:30:25.702Z,0.00
2019-02-25T06:31:25.627Z,0.00
2019-02-25T06:32:25.574Z,0.00
2019-02-25T06:33:25.470Z,0.00
2019-02-25T06:34:25.397Z,0.00
2019-02-25T06:35:25.354Z,0.00
2019-02-25T06:36:25.263Z,0.00
2019-02-25T06:37:25.187Z,0.00
2019-02-25T06:38:25.120Z,0.00
2019-02-25T06:39:25.029Z,0.00
2019-02-25T06:40:24.953Z,0.00
2019-02-25T06:41:24.901Z,0.00
2019-02-25T06:42:24.813Z,0.00
2019-02-25T06:43:24.732Z,0.00
2019-02-25T06:44:24.672Z,0.00
2019-02-25T06:45:24.585Z,0.00
2019-02-25T06:46:24.518Z,0.00
2019-02-25T06:47:24.450Z,0.00
2019-02-25T06:48:24.379Z,0.00
2019-02-25T06:49:24.300Z,0.00
2019-02-25T06:50:24.235Z,5.63
2019-02-25T06:51:24.142Z,5.63
2019-02-25T06:52:24.067Z,5.63
2019-02-25T06:53:23.992Z,5.63
2019-02-25T06:54:23.920Z,5.63
2019-02-25T06:55:23.871Z,5.63
2019-02-25T06:56:23.775Z,5.63
2019-02-25T06:57:23.706Z,5.63
2019-02-25T06:58:23.622Z,5.63
2019-02-25T06:59:23.558Z,11.25
2019-02-25T07:00:23.492Z,11.25
2019-02-25T07:01:23.410Z,11.25
2019-02-25T07:02:23.331Z,11.25
2019-02-25T07:03:23.274Z,11.25
2019-02-25T07:04:23.182Z,16.88
2019-02-25T07:05:23.102Z,16.88
2019-02-25T07:06:23.028Z,16.88
2019-02-25T07:07:22.963Z,16.88
2019-02-25T07:08:22.894Z,16.88
2019-02-25T07:09:22.819Z,22.50
2019-02-25T07:10:22.749Z,22.50
2019-02-25T07:11:22.660Z,22.50
2019-02-25T07:12:22.584Z,22.50
2019-02-25T07:13:22.523Z,28.13
2019-02-25T07:14:22.454Z,28.13
2019-02-25T07:15:22.368Z,28.13
2019-02-25T07:16:22.291Z,33.75
2019-02-25T07:17:22.810Z,33.75
2019-02-25T07:18:22.144Z,33.75
2019-02-25T07:19:22.128Z,39.38
2019-02-25T07:20:22.000Z,39.38
2019-02-25T07:21:21.922Z,39.38
2019-02-25T07:22:21.844Z,39.38
2019-02-25T07:23:21.795Z,39.38
2019-02-25T07:24:21.713Z,45.00
2019-02-25T07:25:21.639Z,45.00
2019-02-25T07:26:21.561Z,45.00
2019-02-25T07:27:21.486Z,50.63
2019-02-25T07:28:21.400Z,50.63
2019-02-25T07:29:21.344Z,50.63
2019-02-25T07:30:21.265Z,56.25
2019-02-25T07:31:21.176Z,56.25
2019-02-25T07:32:21.126Z,56.25
2019-02-25T07:33:21.061Z,61.88
2019-02-25T07:34:20.956Z,61.88
2019-02-25T07:35:20.893Z,61.88
2019-02-25T07:36:20.824Z,67.50
2019-02-25T07:37:20.758Z,67.50
2019-02-25T07:38:20.671Z,67.50
2019-02-25T07:39:20.592Z,73.13
2019-02-25T07:40:20.518Z,73.13
2019-02-25T07:41:20.440Z,73.13
2019-02-25T07:42:20.368Z,73.13
2019-02-25T07:43:20.306Z,78.75
2019-02-25T07:44:20.229Z,78.75
2019-02-25T07:45:20.152Z,78.75
2019-02-25T07:46:20.072Z,78.75
2019-02-25T07:47:20.013Z,78.75
2019-02-25T07:48:19.939Z,84.38
2019-02-25T07:49:19.866Z,84.38
2019-02-25T07:50:19.840Z,84.38
2019-02-25T07:51:19.704Z,84.38
2019-02-25T07:52:19.632Z,84.38
2019-02-25T07:53:19.622Z,84.38
2019-02-25T07:54:19.499Z,90.00
2019-02-25T07:55:19.416Z,90.00
2019-02-25T07:56:19.339Z,90.00
2019-02-25T07:57:19.266Z,90.00
2019-02-25T07:58:19.191Z,95.63
2019-02-25T07:59:19.128Z,95.63
2019-02-25T08:00:19.069Z,95.63
2019-02-25T08:01:18.972Z,101.25
2019-02-25T08:02:18.902Z,101.25
2019-02-25T08:03:18.840Z,101.25
2019-02-25T08:04:18.767Z,101.25
2019-02-25T08:05:18.695Z,101.25
2019-02-25T08:06:18.624Z,106.88
2019-02-25T08:07:18.538Z,106.88
2019-02-25T08:08:18.465Z,106.88
2019-02-25T08:09:18.412Z,112.50
2019-02-25T08:10:18.318Z,112.50
2019-02-25T08:11:18.259Z,112.50
2019-02-25T08:12:18.186Z,112.50
2019-02-25T08:13:18.119Z,112.50
2019-02-25T08:14:18.067Z,118.13
2019-02-25T08:15:17.957Z,118.13
2019-02-25T08:16:17.884Z,118.13
2019-02-25T08:17:17.834Z,118.13
2019-02-25T08:18:17.752Z,123.75
2019-02-25T08:19:17.671Z,123.75
2019-02-25T08:20:17.595Z,123.75
2019-02-25T08:21:17.522Z,123.75
2019-02-25T08:22:17.457Z,123.75
2019-02-25T08:23:17.397Z,123.75
2019-02-25T08:24:17.323Z,129.38
2019-02-25T08:25:17.236Z,129.38
2019-02-25T08:26:17.161Z,129.38
2019-02-25T08:27:17.101Z,129.38
2019-02-25T08:28:17.033Z,129.38
2019-02-25T08:29:16.987Z,129.38
2019-02-25T08:30:16.885Z,135.00
2019-02-25T08:31:16.801Z,135.00
2019-02-25T08:32:16.724Z,135.00
2019-02-25T08:33:16.672Z,135.00
2019-02-25T08:34:18.859Z,135.00
2019-02-25T08:35:16.519Z,135.00
2019-02-25T08:36:16.441Z,135.00
2019-02-25T08:37:16.368Z,135.00
2019-02-25T08:38:16.298Z,140.63
2019-02-25T08:39:16.239Z,140.63
2019-02-25T08:40:16.166Z,140.63
2019-02-25T08:41:16.093Z,140.63
2019-02-25T08:42:16.058Z,140.63
2019-02-25T08:43:15.934Z,140.63
2019-02-25T08:44:15.867Z,140.63
2019-02-25T08:45:15.794Z,140.63
2019-02-25T08:46:15.724Z,140.63
2019-02-25T08:47:15.662Z,151.88
2019-02-25T08:48:15.594Z,146.25
2019-02-25T08:49:15.511Z,146.25
2019-02-25T08:50:15.441Z,146.25
2019-02-25T08:51:15.379Z,146.25
2019-02-25T08:52:15.307Z,146.25
2019-02-25T08:53:15.227Z,146.25
2019-02-25T08:54:15.163Z,146.25
2019-02-25T08:55:15.083Z,146.25
2019-02-25T08:56:15.011Z,151.88
2019-02-25T08:57:14.935Z,151.88
2019-02-25T08:58:14.866Z,151.88
2019-02-25T08:59:14.806Z,151.88
2019-02-25T09:00:14.735Z,151.88
2019-02-25T09:01:15.454Z,151.88
2019-02-25T09:02:14.590Z,151.88
2019-02-25T09:03:14.511Z,151.88
2019-02-25T09:04:14.438Z,151.88
2019-02-25T09:05:14.380Z,151.88
2019-02-25T09:06:14.306Z,151.88
2019-02-25T09:07:14.227Z,151.88
2019-02-25T09:08:14.154Z,151.88
2019-02-25T09:09:14.083Z,151.88
2019-02-25T09:10:14.010Z,151.88
2019-02-25T09:11:14.558Z,151.88
2019-02-25T09:12:13.885Z,157.50
2019-02-25T09:13:13.806Z,157.50
2019-02-25T09:14:13.742Z,157.50
2019-02-25T09:15:13.704Z,157.50
2019-02-25T09:16:13.587Z,157.50
2019-02-25T09:17:13.512Z,157.50
2019-02-25T09:18:13.444Z,157.50
2019-02-25T09:19:13.386Z,157.50
2019-02-25T09:20:13.316Z,157.50
2019-02-25T09:21:13.233Z,157.50
2019-02-25T09:22:13.165Z,157.50
2019-02-25T09:23:13.105Z,157.50
2019-02-25T09:24:13.039Z,157.50
2019-02-25T09:25:12.960Z,157.50
2019-02-25T09:26:12.890Z,157.50
2019-02-25T09:27:12.807Z,157.50
2019-02-25T09:28:12.734Z,157.50
2019-02-25T09:29:12.680Z,157.50
2019-02-25T09:30:12.610Z,157.50
2019-02-25T09:31:12.529Z,163.13
2019-02-25T09:32:12.453Z,163.13
2019-02-25T09:33:12.391Z,163.13
2019-02-25T09:34:12.312Z,163.13
2019-02-25T09:35:12.255Z,163.13
2019-02-25T09:36:12.227Z,163.13
2019-02-25T09:37:12.152Z,163.13
2019-02-25T09:38:12.026Z,163.13
2019-02-25T09:39:11.974Z,163.13
2019-02-25T09:40:11.899Z,163.13
2019-02-25T09:41:11.831Z,163.13
2019-02-25T09:42:11.760Z,163.13
2019-02-25T09:43:11.677Z,163.13
2019-02-25T09:44:11.608Z,163.13
2019-02-25T09:45:11.539Z,163.13
2019-02-25T09:46:11.467Z,163.13
2019-02-25T09:47:11.409Z,163.13
2019-02-25T09:48:11.339Z,163.13
2019-02-25T09:49:11.275Z,163.13
2019-02-25T09:50:11.195Z,163.13
2019-02-25T09:51:11.435Z,163.13
2019-02-25T09:52:11.052Z,163.13
2019-02-25T09:53:10.990Z,163.13
2019-02-25T09:54:10.950Z,163.13
2019-02-25T09:55:10.835Z,163.13
2019-02-25T09:56:10.767Z,163.13
2019-02-25T09:57:10.703Z,163.13
2019-02-25T09:58:10.629Z,163.13
2019-02-25T09:59:10.570Z,163.13
2019-02-25T10:00:10.506Z,163.13
2019-02-25T10:01:10.429Z,163.13
2019-02-25T10:02:10.364Z,163.13
2019-02-25T10:03:10.277Z,163.13
2019-02-25T10:04:10.210Z,163.13
2019-02-25T10:05:10.137Z,163.13
2019-02-25T10:06:10.069Z,163.13
2019-02-25T10:07:10.011Z,163.13
2019-02-25T10:08:09.941Z,163.13
2019-02-25T10:09:09.863Z,163.13
2019-02-25T10:10:09.790Z,163.13
2019-02-25T10:11:09.740Z,163.13
2019-02-25T10:12:09.694Z,163.13
2019-02-25T10:13:09.597Z,168.75
2019-02-25T10:14:09.536Z,163.13
2019-02-25T10:15:09.454Z,163.13
2019-02-25T10:16:09.375Z,163.13
2019-02-25T10:17:09.333Z,163.13
2019-02-25T10:18:09.232Z,168.75
2019-02-25T10:19:09.179Z,163.13
2019-02-25T10:20:09.106Z,163.13
2019-02-25T10:21:09.048Z,163.13
2019-02-25T10:22:08.972Z,163.13
2019-02-25T10:23:08.893Z,163.13
2019-02-25T10:24:08.816Z,163.13
2019-02-25T10:25:08.757Z,163.13
2019-02-25T10:26:08.689Z,163.13
2019-02-25T10:27:08.611Z,163.13
2019-02-25T10:28:08.545Z,163.13
2019-02-25T10:29:08.475Z,163.13
2019-02-25T10:30:08.407Z,163.13
2019-02-25T10:31:08.347Z,163.13
2019-02-25T10:32:08.281Z,163.13
2019-02-25T10:33:08.195Z,163.13
2019-02-25T10:34:08.163Z,163.13
2019-02-25T10:35:09.383Z,163.13
2019-02-25T10:36:07.997Z,157.50
2019-02-25T10:37:09.037Z,157.50
2019-02-25T10:38:07.864Z,157.50
2019-02-25T10:39:09.089Z,157.50
2019-02-25T10:40:07.711Z,157.50
2019-02-25T10:41:07.654Z,157.50
2019-02-25T10:42:07.580Z,157.50
2019-02-25T10:43:07.517Z,151.88
2019-02-25T10:44:08.470Z,151.88
2019-02-25T10:45:08.929Z,151.88
2019-02-25T10:46:09.062Z,151.88
2019-02-25T10:47:07.241Z,157.50
2019-02-25T10:48:07.175Z,157.50
2019-02-25T10:49:11.583Z,151.88
2019-02-25T10:50:07.464Z,146.25
2019-02-25T10:51:07.645Z,146.25
2019-02-25T10:52:08.720Z,146.25
2019-02-25T10:53:06.835Z,146.25
2019-02-25T10:54:06.751Z,146.25
2019-02-25T10:55:06.692Z,146.25
2019-02-25T10:56:06.620Z,140.63
2019-02-25T10:57:06.540Z,140.63
2019-02-25T10:58:06.473Z,140.63
2019-02-25T10:59:08.103Z,140.63
2019-02-25T11:00:07.493Z,140.63
2019-02-25T11:01:08.551Z,140.63
2019-02-25T11:02:06.205Z,140.63
2019-02-25T11:03:06.126Z,140.63
2019-02-25T11:04:06.057Z,140.63
2019-02-25T11:05:05.989Z,135.00
2019-02-25T11:06:05.934Z,135.00
2019-02-25T11:07:07.844Z,135.00
2019-02-25T11:08:07.379Z,135.00
2019-02-25T11:09:07.016Z,135.00
2019-02-25T11:10:05.652Z,135.00
2019-02-25T11:11:21.042Z,135.00
2019-02-25T11:12:05.518Z,135.00
2019-02-25T11:13:05.483Z,129.38
2019-02-25T11:14:07.115Z,129.38
2019-02-25T11:15:07.406Z,129.38
2019-02-25T11:16:05.231Z,129.38
2019-02-25T11:17:05.166Z,129.38
2019-02-25T11:18:05.107Z,129.38
2019-02-25T11:19:05.038Z,129.38
2019-02-25T11:20:05.700Z,123.75
2019-02-25T11:21:06.248Z,129.38
2019-02-25T11:22:05.523Z,129.38
2019-02-25T11:23:04.799Z,129.38
2019-02-25T11:24:04.682Z,129.38
2019-02-25T11:25:04.611Z,129.38
2019-02-25T11:26:04.551Z,129.38
2019-02-25T11:27:05.174Z,129.38
2019-02-25T11:28:05.393Z,129.38
2019-02-25T11:29:05.559Z,123.75
2019-02-25T11:30:04.306Z,123.75
2019-02-25T11:31:04.207Z,123.75
2019-02-25T11:32:04.138Z,123.75
2019-02-25T11:33:04.157Z,123.75
2019-02-25T11:34:05.711Z,123.75
2019-02-25T11:35:04.500Z,123.75
2019-02-25T11:36:03.871Z,123.75
2019-02-25T11:37:03.796Z,123.75
2019-02-25T11:38:03.749Z,123.75
2019-02-25T11:39:04.587Z,118.13
2019-02-25T11:40:04.389Z,118.13
2019-02-25T11:41:04.804Z,118.13
2019-02-25T11:42:05.538Z,118.13
2019-02-25T11:43:03.373Z,118.13
2019-02-25T11:44:03.300Z,118.13
2019-02-25T11:45:04.533Z,118.13
2019-02-25T11:46:03.166Z,118.13
2019-02-25T11:47:03.102Z,118.13
2019-02-25T11:48:03.032Z,118.13
2019-02-25T11:49:02.953Z,118.13
2019-02-25T11:50:02.877Z,118.13
2019-02-25T11:51:02.834Z,118.13
2019-02-25T11:52:02.755Z,112.50
2019-02-25T11:53:02.669Z,112.50
2019-02-25T11:54:02.617Z,112.50
2019-02-25T11:55:02.561Z,112.50
2019-02-25T11:56:02.475Z,112.50
2019-02-25T11:57:02.403Z,112.50
2019-02-25T11:58:02.335Z,112.50
2019-02-25T11:59:02.254Z,112.50
2019-02-25T12:00:02.197Z,112.50
2019-02-25T12:01:02.123Z,112.50
2019-02-25T12:02:02.049Z,112.50
2019-02-25T12:03:01.975Z,112.50
2019-02-25T12:04:01.921Z,106.88
2019-02-25T12:05:01.841Z,106.88
2019-02-25T12:06:01.775Z,106.88
2019-02-25T12:07:01.725Z,106.88
2019-02-25T12:08:01.628Z,112.50
2019-02-25T12:09:01.562Z,112.50
2019-02-25T12:10:01.500Z,112.50
2019-02-25T12:11:01.433Z,106.88
2019-02-25T12:12:01.376Z,106.88
2019-02-25T12:13:01.293Z,106.88
2019-02-25T12:14:01.211Z,106.88
2019-02-25T12:15:01.149Z,106.88
2019-02-25T12:16:01.086Z,106.88
2019-02-25T12:17:01.017Z,106.88
2019-02-25T12:18:00.937Z,106.88
2019-02-25T12:19:00.867Z,106.88
2019-02-25T12:20:00.797Z,106.88
2019-02-25T12:21:00.729Z,101.25
2019-02-25T12:22:00.673Z,101.25
2019-02-25T12:23:00.597Z,101.25
2019-02-25T12:24:00.536Z,101.25
2019-02-25T12:25:00.458Z,101.25
2019-02-25T12:26:00.381Z,101.25
2019-02-25T12:27:00.317Z,101.25
2019-02-25T12:28:00.241Z,101.25
2019-02-25T12:29:00.175Z,101.25
2019-02-25T12:30:00.115Z,101.25
2019-02-25T12:31:00.055Z,101.25
2019-02-25T12:31:59.988Z,101.25
2019-02-25T12:32:59.969Z,95.63
2019-02-25T12:33:59.838Z,101.25
2019-02-25T12:34:59.773Z,95.63
2019-02-25T12:35:59.705Z,95.63
2019-02-25T12:36:59.632Z,95.63
2019-02-25T12:37:59.559Z,95.63
2019-02-25T12:38:59.477Z,95.63
2019-02-25T12:39:59.428Z,95.63
2019-02-25T12:40:59.354Z,95.63
2019-02-25T12:41:59.275Z,95.63
2019-02-25T12:42:59.204Z,95.63
2019-02-25T12:43:59.135Z,95.63
2019-02-25T12:44:59.068Z,90.00
2019-02-25T12:45:59.008Z,95.63
2019-02-25T12:46:58.934Z,95.63
2019-02-25T12:47:58.863Z,95.63
2019-02-25T12:48:58.789Z,90.00
2019-02-25T12:49:58.735Z,90.00
2019-02-25T12:50:58.676Z,90.00
2019-02-25T12:51:58.595Z,95.63
2019-02-25T12:52:58.520Z,90.00
2019-02-25T12:53:58.449Z,90.00
2019-02-25T12:54:58.390Z,90.00
2019-02-25T12:55:58.305Z,90.00
2019-02-25T12:56:58.233Z,90.00